Time;durP1;ratioP1;P1;durP2;ratioP2;P2;SDS_P1;SDS_P2;PMS_P1;PMS_P2;Temp;Humidity;BMP_temperature;BMP_pressure;BME280_temperature;BME280_humidity;BME280_pressure;Samples;Min_cycle;Max_cycle;Signal;HPM_P1;HPM_P2
2022/02/13 00:00:20;;;;;;;15.77;4.93;;;;;;;;;;5043461;28;20045;-59
2022/02/13 00:02:47;;;;;;;11.82;5.55;;;;;;;;;;5042775;28;20159;-59
2022/02/13 00:05:13;;;;;;;13.38;5.40;;;;;;;;;;5039590;28;20091;-59
2022/02/13 00:07:39;;;;;;;9.32;4.55;;;;;;;;;;5049352;28;20044;-59
2022/02/13 00:10:08;;;;;;;13.50;5.57;;;;;;;;;;5040171;28;20072;-59
2022/02/13 00:12:34;;;;;;;10.07;4.85;;;;;;;;;;5043746;28;20045;-59
2022/02/13 00:15:01;;;;;;;13.63;5.00;;;;;;;;;;5040334;28;20569;-59
2022/02/13 00:17:27;;;;;;;11.07;4.55;;;;;;;;;;5087340;28;20049;-59
2022/02/13 00:19:53;;;;;;;10.95;5.45;;;;;;;;;;5044603;28;20037;-60
2022/02/13 00:22:21;;;;;;;11.77;5.22;;;;;;;;;;5039606;28;20049;-59
2022/02/13 00:24:47;;;;;;;15.02;5.22;;;;;;;;;;5045860;28;20045;-59
2022/02/13 00:27:14;;;;;;;13.52;5.68;;;;;;;;;;5039446;28;20139;-59
2022/02/13 00:29:40;;;;;;;17.70;5.63;;;;;;;;;;5042970;28;20551;-59
2022/02/13 00:32:06;;;;;;;14.00;4.95;;;;;;;;;;5042147;28;20049;-60
2022/02/13 00:34:32;;;;;;;14.23;5.15;;;;;;;;;;5044186;28;20102;-59
2022/02/13 00:37:00;;;;;;;14.52;6.18;;;;;;;;;;5040122;28;20190;-59
2022/02/13 00:39:27;;;;;;;12.20;5.20;;;;;;;;;;5041731;28;20037;-59
2022/02/13 00:41:53;;;;;;;10.90;5.63;;;;;;;;;;5044668;28;20047;-59
2022/02/13 00:44:20;;;;;;;13.98;5.45;;;;;;;;;;5048969;28;20105;-59
2022/02/13 00:46:46;;;;;;;11.82;6.38;;;;;;;;;;5035189;28;20438;-59
2022/02/13 00:49:12;;;;;;;21.60;5.60;;;;;;;;;;5044380;28;20037;-59
2022/02/13 00:51:38;;;;;;;13.88;5.25;;;;;;;;;;5036851;28;20049;-59
2022/02/13 00:54:04;;;;;;;19.10;5.40;;;;;;;;;;5048691;28;20056;-59
2022/02/13 00:56:30;;;;;;;12.00;5.45;;;;;;;;;;5045425;28;20053;-59
2022/02/13 00:58:56;;;;;;;11.45;5.97;;;;;;;;;;5039645;28;20049;-59
2022/02/13 01:01:23;;;;;;;12.73;5.50;;;;;;;;;;5041593;28;20124;-59
2022/02/13 01:03:49;;;;;;;11.68;6.30;;;;;;;;;;5046863;28;20404;-59
2022/02/13 01:06:15;;;;;;;14.63;5.15;;;;;;;;;;5040368;28;20053;-59
2022/02/13 01:08:41;;;;;;;18.15;5.78;;;;;;;;;;5052878;28;20079;-59
2022/02/13 01:11:07;;;;;;;11.13;5.25;;;;;;;;;;5040571;28;20098;-59
2022/02/13 01:13:34;;;;;;;11.60;5.22;;;;;;;;;;5040956;28;20045;-59
2022/02/13 01:16:00;;;;;;;13.77;5.40;;;;;;;;;;5041940;28;20048;-59
2022/02/13 01:18:26;;;;;;;11.60;5.68;;;;;;;;;;5038233;28;20124;-59
2022/02/13 01:20:52;;;;;;;13.63;5.70;;;;;;;;;;5043027;28;20044;-59
2022/02/13 01:23:19;;;;;;;17.83;6.43;;;;;;;;;;5035429;28;20048;-59
2022/02/13 01:25:45;;;;;;;12.88;5.95;;;;;;;;;;5032386;28;20117;-59
2022/02/13 01:28:11;;;;;;;11.63;5.53;;;;;;;;;;5041115;28;20049;-59
2022/02/13 01:30:37;;;;;;;14.05;5.32;;;;;;;;;;5039372;28;20544;-59
2022/02/13 01:33:04;;;;;;;12.60;5.50;;;;;;;;;;5042365;28;20468;-59
2022/02/13 01:35:30;;;;;;;11.55;5.32;;;;;;;;;;5041504;28;20550;-59
2022/02/13 01:37:56;;;;;;;14.00;6.15;;;;;;;;;;5043942;28;20041;-59
2022/02/13 01:40:22;;;;;;;17.75;5.80;;;;;;;;;;5041943;28;20094;-59
2022/02/13 01:42:49;;;;;;;17.38;6.45;;;;;;;;;;5046116;28;20040;-59
2022/02/13 01:45:15;;;;;;;13.25;6.35;;;;;;;;;;5039945;28;20044;-60
2022/02/13 01:47:41;;;;;;;14.23;5.47;;;;;;;;;;5037717;28;20040;-61
2022/02/13 01:50:09;;;;;;;13.32;6.32;;;;;;;;;;5041209;28;20048;-60
2022/02/13 01:52:36;;;;;;;15.15;6.38;;;;;;;;;;5038494;28;20061;-60
2022/02/13 01:55:03;;;;;;;13.98;5.32;;;;;;;;;;5039689;28;20080;-59
2022/02/13 01:57:29;;;;;;;12.35;5.15;;;;;;;;;;5043466;28;20041;-60
2022/02/13 01:59:56;;;;;;;12.57;6.97;;;;;;;;;;5043546;28;20040;-59
2022/02/13 02:02:22;;;;;;;13.98;5.78;;;;;;;;;;5047335;28;20146;-60
2022/02/13 02:04:53;;;;;;;12.98;6.40;;;;;;;;;;5041307;28;20115;-59
2022/02/13 02:07:20;;;;;;;17.13;6.20;;;;;;;;;;5037202;28;20080;-59
2022/02/13 02:09:47;;;;;;;14.05;6.63;;;;;;;;;;5038454;28;20041;-59
2022/02/13 02:12:13;;;;;;;14.80;5.75;;;;;;;;;;5077095;28;20052;-59
2022/02/13 02:14:39;;;;;;;11.90;6.88;;;;;;;;;;5041470;28;20055;-59
2022/02/13 02:17:06;;;;;;;17.65;6.70;;;;;;;;;;5039711;28;20040;-60
2022/02/13 02:19:32;;;;;;;13.80;5.72;;;;;;;;;;5042623;28;20106;-59
2022/02/13 02:21:59;;;;;;;12.70;6.57;;;;;;;;;;5042991;28;20400;-59
2022/02/13 02:24:25;;;;;;;13.25;6.53;;;;;;;;;;5039263;28;20049;-59
2022/02/13 02:26:51;;;;;;;24.13;7.57;;;;;;;;;;5038817;28;20064;-59
2022/02/13 02:29:17;;;;;;;14.93;6.22;;;;;;;;;;5036538;28;20555;-60
2022/02/13 02:31:43;;;;;;;18.52;6.65;;;;;;;;;;5037221;28;20072;-59
2022/02/13 02:34:09;;;;;;;17.45;6.85;;;;;;;;;;5043246;28;20447;-60
2022/02/13 02:36:36;;;;;;;15.98;6.70;;;;;;;;;;5048240;28;20497;-59
2022/02/13 02:39:02;;;;;;;14.05;6.53;;;;;;;;;;5080762;28;20068;-59
2022/02/13 02:41:30;;;;;;;14.80;7.32;;;;;;;;;;5038575;28;20083;-59
2022/02/13 02:43:56;;;;;;;12.93;5.95;;;;;;;;;;5036754;28;20057;-59
2022/02/13 02:46:22;;;;;;;16.95;6.80;;;;;;;;;;5035105;28;20045;-59
2022/02/13 02:48:48;;;;;;;15.65;7.18;;;;;;;;;;5039999;28;20060;-59
2022/02/13 02:51:14;;;;;;;12.52;7.03;;;;;;;;;;5040817;28;20365;-59
2022/02/13 02:53:42;;;;;;;15.02;6.22;;;;;;;;;;5033510;28;20498;-59
2022/02/13 02:56:09;;;;;;;17.05;7.25;;;;;;;;;;5036289;28;20041;-59
2022/02/13 02:58:36;;;;;;;16.15;7.53;;;;;;;;;;5034153;28;20038;-59
2022/02/13 03:01:02;;;;;;;13.38;7.07;;;;;;;;;;5033160;28;20113;-59
2022/02/13 03:03:30;;;;;;;17.05;6.90;;;;;;;;;;5040782;28;20041;-59
2022/02/13 03:05:56;;;;;;;15.05;7.00;;;;;;;;;;5041037;28;20099;-59
2022/02/13 03:08:23;;;;;;;13.80;6.80;;;;;;;;;;5042334;28;20401;-59
2022/02/13 03:10:49;;;;;;;17.55;7.03;;;;;;;;;;5071826;28;20520;-59
2022/02/13 03:13:16;;;;;;;15.68;7.20;;;;;;;;;;5034317;28;20037;-59
2022/02/13 03:15:43;;;;;;;16.30;7.68;;;;;;;;;;5031787;28;20052;-59
2022/02/13 03:18:10;;;;;;;14.35;6.45;;;;;;;;;;5039321;28;20048;-59
2022/02/13 03:20:36;;;;;;;18.17;7.28;;;;;;;;;;5042717;28;20041;-59
2022/02/13 03:23:03;;;;;;;16.88;7.38;;;;;;;;;;5075197;28;20060;-59
2022/02/13 03:25:29;;;;;;;13.77;6.80;;;;;;;;;;5039052;28;20037;-59
2022/02/13 03:27:55;;;;;;;18.98;7.78;;;;;;;;;;5042955;28;20041;-59
2022/02/13 03:30:21;;;;;;;12.65;6.68;;;;;;;;;;5078541;28;20042;-59
2022/02/13 03:32:47;;;;;;;15.88;8.07;;;;;;;;;;5078455;28;20056;-59
2022/02/13 03:35:13;;;;;;;15.93;6.75;;;;;;;;;;5046281;28;20037;-59
2022/02/13 03:37:42;;;;;;;15.20;6.80;;;;;;;;;;5037264;28;20046;-59
2022/02/13 03:40:09;;;;;;;17.98;8.25;;;;;;;;;;5037537;28;20045;-59
2022/02/13 03:42:35;;;;;;;21.05;7.90;;;;;;;;;;5037468;28;20045;-59
2022/02/13 03:45:01;;;;;;;12.95;6.93;;;;;;;;;;5045244;28;20047;-59
2022/02/13 03:47:27;;;;;;;11.90;6.32;;;;;;;;;;5040749;28;20041;-59
2022/02/13 03:49:54;;;;;;;13.55;7.32;;;;;;;;;;5044566;28;20116;-59
2022/02/13 03:52:21;;;;;;;16.70;7.88;;;;;;;;;;5043079;28;20115;-60
2022/02/13 03:54:47;;;;;;;17.75;7.07;;;;;;;;;;5039948;28;20136;-59
2022/02/13 03:57:13;;;;;;;17.30;8.27;;;;;;;;;;5042942;28;20124;-59
2022/02/13 03:59:39;;;;;;;20.33;8.50;;;;;;;;;;5042975;28;20388;-59
2022/02/13 04:02:05;;;;;;;18.80;7.75;;;;;;;;;;5039251;28;20435;-59
2022/02/13 04:04:31;;;;;;;18.83;7.50;;;;;;;;;;5045144;28;20044;-59
2022/02/13 04:06:57;;;;;;;19.60;8.07;;;;;;;;;;5050171;28;20040;-59
2022/02/13 04:09:23;;;;;;;19.25;8.00;;;;;;;;;;5044158;28;20049;-59
2022/02/13 04:11:49;;;;;;;16.02;8.52;;;;;;;;;;5049589;28;20111;-59
2022/02/13 04:14:15;;;;;;;23.08;8.73;;;;;;;;;;5049421;28;20041;-59
2022/02/13 04:16:42;;;;;;;18.58;6.85;;;;;;;;;;5043034;28;20409;-60
2022/02/13 04:19:08;;;;;;;15.68;7.65;;;;;;;;;;5041308;28;20555;-59
2022/02/13 04:21:34;;;;;;;20.27;7.25;;;;;;;;;;5044949;28;20067;-59
2022/02/13 04:24:00;;;;;;;15.65;7.38;;;;;;;;;;5039394;28;20040;-59
2022/02/13 04:26:26;;;;;;;20.33;7.55;;;;;;;;;;5074845;28;20053;-59
2022/02/13 04:28:52;;;;;;;16.60;7.25;;;;;;;;;;5046186;28;20041;-59
2022/02/13 04:31:18;;;;;;;14.00;7.13;;;;;;;;;;5040692;28;20048;-59
2022/02/13 04:33:44;;;;;;;16.90;8.13;;;;;;;;;;5043012;28;20057;-59
2022/02/13 04:36:10;;;;;;;16.10;6.93;;;;;;;;;;5043780;28;20045;-59
2022/02/13 04:38:37;;;;;;;18.13;8.27;;;;;;;;;;5043015;28;20119;-60
2022/02/13 04:41:03;;;;;;;23.40;7.70;;;;;;;;;;5042767;28;20041;-59
2022/02/13 04:43:29;;;;;;;20.10;8.63;;;;;;;;;;5035879;28;20038;-59
2022/02/13 04:45:55;;;;;;;17.35;7.80;;;;;;;;;;5039466;28;20116;-59
2022/02/13 04:48:21;;;;;;;16.55;8.02;;;;;;;;;;5040618;28;20453;-59
2022/02/13 04:50:47;;;;;;;14.30;6.97;;;;;;;;;;5034915;28;20079;-59
2022/02/13 04:53:14;;;;;;;18.40;8.43;;;;;;;;;;5040654;28;20127;-59
2022/02/13 04:55:41;;;;;;;17.02;7.40;;;;;;;;;;5034739;28;20038;-59
2022/02/13 04:58:07;;;;;;;15.77;7.32;;;;;;;;;;5037337;28;20132;-59
2022/02/13 05:00:33;;;;;;;17.13;7.40;;;;;;;;;;5042583;28;20103;-59
2022/02/13 05:02:59;;;;;;;17.73;8.45;;;;;;;;;;5041736;28;20045;-59
2022/02/13 05:05:26;;;;;;;15.13;7.53;;;;;;;;;;5036475;28;20037;-59
2022/02/13 05:07:52;;;;;;;15.52;7.45;;;;;;;;;;5037958;28;20055;-59
2022/02/13 05:10:18;;;;;;;23.60;8.35;;;;;;;;;;5037285;28;20052;-59
2022/02/13 05:12:44;;;;;;;14.10;8.23;;;;;;;;;;5041531;28;20132;-59
2022/02/13 05:15:10;;;;;;;12.80;7.32;;;;;;;;;;5036596;28;20037;-59
2022/02/13 05:17:36;;;;;;;16.08;7.80;;;;;;;;;;5048079;28;20128;-59
2022/02/13 05:20:05;;;;;;;16.30;7.22;;;;;;;;;;5046212;28;20131;-59
2022/02/13 05:22:31;;;;;;;13.68;6.70;;;;;;;;;;5040418;28;20099;-59
2022/02/13 05:24:57;;;;;;;13.07;6.95;;;;;;;;;;5034257;28;20040;-59
2022/02/13 05:27:23;;;;;;;18.40;8.40;;;;;;;;;;5042562;28;20045;-59
2022/02/13 05:29:49;;;;;;;15.45;7.57;;;;;;;;;;5041090;28;20052;-59
2022/02/13 05:32:16;;;;;;;15.13;7.85;;;;;;;;;;5042996;28;20056;-60
2022/02/13 05:34:42;;;;;;;13.23;7.28;;;;;;;;;;5042253;28;20384;-59
2022/02/13 05:37:08;;;;;;;20.75;7.75;;;;;;;;;;5041488;28;20497;-59
2022/02/13 05:39:34;;;;;;;20.80;7.65;;;;;;;;;;5042311;28;20045;-59
2022/02/13 05:42:00;;;;;;;16.17;8.55;;;;;;;;;;5045868;28;20487;-59
2022/02/13 05:44:27;;;;;;;16.23;6.88;;;;;;;;;;5042591;28;20033;-59
2022/02/13 05:46:53;;;;;;;13.30;7.55;;;;;;;;;;5049268;28;20037;-59
2022/02/13 05:49:19;;;;;;;14.70;6.93;;;;;;;;;;5035014;28;20228;-59
2022/02/13 05:51:46;;;;;;;15.70;7.03;;;;;;;;;;5041913;28;20037;-59
2022/02/13 05:54:12;;;;;;;17.75;9.02;;;;;;;;;;5043230;28;20169;-59
2022/02/13 05:56:38;;;;;;;18.60;7.78;;;;;;;;;;5044788;28;20489;-59
2022/02/13 05:59:04;;;;;;;16.63;7.63;;;;;;;;;;5041397;28;20144;-59
2022/02/13 06:01:30;;;;;;;16.98;7.72;;;;;;;;;;5038488;28;20102;-59
2022/02/13 06:03:57;;;;;;;15.25;7.88;;;;;;;;;;5042613;28;20124;-59
2022/02/13 06:06:23;;;;;;;15.60;7.53;;;;;;;;;;5040872;28;20515;-59
2022/02/13 06:08:49;;;;;;;17.80;8.90;;;;;;;;;;5049364;28;20041;-59
2022/02/13 06:11:15;;;;;;;14.65;7.10;;;;;;;;;;5050957;28;20048;-59
2022/02/13 06:13:41;;;;;;;15.60;7.28;;;;;;;;;;5043996;28;20041;-59
2022/02/13 06:16:08;;;;;;;20.30;7.40;;;;;;;;;;5042793;28;20045;-59
2022/02/13 06:18:35;;;;;;;13.25;6.78;;;;;;;;;;5037283;28;20179;-60
2022/02/13 06:21:03;;;;;;;17.92;7.20;;;;;;;;;;5042984;28;20123;-59
2022/02/13 06:23:29;;;;;;;26.15;7.97;;;;;;;;;;5033885;28;20125;-59
2022/02/13 06:25:55;;;;;;;12.85;7.15;;;;;;;;;;5046196;28;20048;-59
2022/02/13 06:28:21;;;;;;;21.23;8.18;;;;;;;;;;5034801;28;20042;-59
2022/02/13 06:30:47;;;;;;;13.50;7.10;;;;;;;;;;5068488;28;20520;-59
2022/02/13 06:33:14;;;;;;;15.70;7.20;;;;;;;;;;5041888;28;20045;-59
2022/02/13 06:35:41;;;;;;;14.38;7.10;;;;;;;;;;5041953;28;20037;-59
2022/02/13 06:38:11;;;;;;;13.48;7.18;;;;;;;;;;5041326;28;20045;-59
2022/02/13 06:40:38;;;;;;;14.63;8.07;;;;;;;;;;5040053;28;20414;-59
2022/02/13 06:43:04;;;;;;;15.82;7.00;;;;;;;;;;5070744;28;20075;-59
2022/02/13 06:45:30;;;;;;;20.27;7.78;;;;;;;;;;5037137;28;20033;-59
2022/02/13 06:47:56;;;;;;;16.00;6.60;;;;;;;;;;5037763;28;20063;-60
2022/02/13 06:50:22;;;;;;;16.20;7.00;;;;;;;;;;5038070;28;20045;-59
2022/02/13 06:52:49;;;;;;;17.00;6.82;;;;;;;;;;5056032;28;20052;-59
2022/02/13 06:55:15;;;;;;;14.57;6.95;;;;;;;;;;5042643;28;20361;-59
2022/02/13 06:57:43;;;;;;;13.15;6.53;;;;;;;;;;5044444;28;20048;-59
2022/02/13 07:00:10;;;;;;;14.77;6.88;;;;;;;;;;5037224;28;20065;-59
2022/02/13 07:02:36;;;;;;;12.93;6.75;;;;;;;;;;5038959;28;20048;-59
2022/02/13 07:05:02;;;;;;;11.30;6.53;;;;;;;;;;5036416;28;20446;-59
2022/02/13 07:07:28;;;;;;;12.77;6.47;;;;;;;;;;5039826;28;20037;-59
2022/02/13 07:09:54;;;;;;;12.23;6.68;;;;;;;;;;5038130;28;20049;-59
2022/02/13 07:12:20;;;;;;;17.13;7.57;;;;;;;;;;5049914;28;20372;-59
2022/02/13 07:14:47;;;;;;;16.52;6.97;;;;;;;;;;5047436;28;20560;-59
2022/02/13 07:17:13;;;;;;;15.38;7.05;;;;;;;;;;5049238;28;20052;-59
2022/02/13 07:19:39;;;;;;;19.52;8.20;;;;;;;;;;5039601;28;20034;-59
2022/02/13 07:22:06;;;;;;;12.73;6.18;;;;;;;;;;5045839;28;20048;-59
2022/02/13 07:24:34;;;;;;;13.75;6.78;;;;;;;;;;5071993;28;20033;-59
2022/02/13 07:27:01;;;;;;;11.57;6.45;;;;;;;;;;5038753;28;20049;-58
2022/02/13 07:29:27;;;;;;;13.00;6.30;;;;;;;;;;5042556;28;20041;-60
2022/02/13 07:31:53;;;;;;;14.00;6.18;;;;;;;;;;5075153;28;20052;-59
2022/02/13 07:34:19;;;;;;;11.95;7.07;;;;;;;;;;5047822;28;20045;-59
2022/02/13 07:36:51;;;;;;;17.65;7.82;;;;;;;;;;5052738;28;20063;-59
2022/02/13 07:39:17;;;;;;;18.13;7.93;;;;;;;;;;5047086;28;20583;-59
2022/02/13 07:41:44;;;;;;;12.25;6.40;;;;;;;;;;5049300;28;20064;-59
2022/02/13 07:44:10;;;;;;;16.85;7.13;;;;;;;;;;5044923;28;20115;-59
2022/02/13 07:46:36;;;;;;;12.77;6.65;;;;;;;;;;5040012;28;20505;-59
2022/02/13 07:49:05;;;;;;;12.82;6.18;;;;;;;;;;5041715;28;20065;-60
2022/02/13 07:51:33;;;;;;;12.85;7.15;;;;;;;;;;5041176;28;20069;-60
2022/02/13 07:53:59;;;;;;;17.65;6.47;;;;;;;;;;5036841;28;20099;-60
2022/02/13 07:56:26;;;;;;;15.93;7.57;;;;;;;;;;5040841;28;20056;-59
2022/02/13 07:58:53;;;;;;;16.27;7.90;;;;;;;;;;5036304;28;20030;-59
2022/02/13 08:01:19;;;;;;;15.23;7.32;;;;;;;;;;5072835;28;20554;-60
2022/02/13 08:03:46;;;;;;;16.05;7.10;;;;;;;;;;5059591;28;20472;-60
2022/02/13 08:06:14;;;;;;;14.43;6.70;;;;;;;;;;5046245;28;20033;-60
2022/02/13 08:08:41;;;;;;;14.20;7.15;;;;;;;;;;5044511;28;20041;-60
2022/02/13 08:11:07;;;;;;;15.35;6.97;;;;;;;;;;5044352;28;20041;-60
2022/02/13 08:13:34;;;;;;;13.05;6.80;;;;;;;;;;5038570;28;20095;-60
2022/02/13 08:16:00;;;;;;;13.02;6.28;;;;;;;;;;5046217;28;20113;-60
2022/02/13 08:18:27;;;;;;;14.23;6.53;;;;;;;;;;5047686;28;20060;-59
2022/02/13 08:20:54;;;;;;;12.55;6.70;;;;;;;;;;5046265;28;20144;-59
2022/02/13 08:23:22;;;;;;;11.85;6.57;;;;;;;;;;5040140;28;20052;-59
2022/02/13 08:25:48;;;;;;;11.18;7.07;;;;;;;;;;5041821;28;20049;-59
2022/02/13 08:28:15;;;;;;;13.80;7.88;;;;;;;;;;5044497;28;20041;-59
2022/02/13 08:30:41;;;;;;;10.80;5.82;;;;;;;;;;5045877;28;20126;-59
2022/02/13 08:33:07;;;;;;;12.35;6.03;;;;;;;;;;5043011;28;20507;-59
2022/02/13 08:35:34;;;;;;;11.55;6.88;;;;;;;;;;5033402;28;20152;-61
2022/02/13 08:38:00;;;;;;;14.13;7.47;;;;;;;;;;5035015;28;20386;-59
2022/02/13 08:40:30;;;;;;;14.60;6.65;;;;;;;;;;5043448;28;20405;-59
2022/02/13 08:42:58;;;;;;;12.75;6.50;;;;;;;;;;5034625;28;20072;-60
2022/02/13 08:45:25;;;;;;;11.93;6.88;;;;;;;;;;5042582;28;20049;-59
2022/02/13 08:47:51;;;;;;;13.82;7.13;;;;;;;;;;5068501;28;20049;-60
2022/02/13 08:50:17;;;;;;;13.63;7.93;;;;;;;;;;5043205;28;20041;-60
2022/02/13 08:52:43;;;;;;;15.60;7.18;;;;;;;;;;5034058;28;20554;-60
2022/02/13 08:55:13;;;;;;;15.70;6.85;;;;;;;;;;5035853;28;20167;-62
2022/02/13 08:57:39;;;;;;;13.65;6.60;;;;;;;;;;5068741;28;20050;-59
2022/02/13 09:00:06;;;;;;;13.18;6.75;;;;;;;;;;5040587;28;20096;-59
2022/02/13 09:02:33;;;;;;;13.25;6.57;;;;;;;;;;5038463;28;20083;-59
2022/02/13 09:04:59;;;;;;;15.55;7.85;;;;;;;;;;5041378;28;20040;-59
2022/02/13 09:07:25;;;;;;;12.80;5.93;;;;;;;;;;5070228;28;20053;-59
2022/02/13 09:09:52;;;;;;;15.48;7.72;;;;;;;;;;5033507;28;20124;-59
2022/02/13 09:12:19;;;;;;;14.02;7.05;;;;;;;;;;5038662;28;20098;-59
2022/02/13 09:14:46;;;;;;;10.68;5.55;;;;;;;;;;5046363;28;20128;-59
2022/02/13 09:17:12;;;;;;;12.95;6.75;;;;;;;;;;5036957;28;20112;-60
2022/02/13 09:19:38;;;;;;;11.30;6.70;;;;;;;;;;5034858;28;20041;-60
2022/02/13 09:22:05;;;;;;;13.82;6.70;;;;;;;;;;5039196;28;20052;-59
2022/02/13 09:24:31;;;;;;;12.75;6.97;;;;;;;;;;5032247;28;20378;-60
2022/02/13 09:26:57;;;;;;;13.68;6.82;;;;;;;;;;5035969;28;20045;-60
2022/02/13 09:29:23;;;;;;;11.23;6.45;;;;;;;;;;5039584;28;20049;-59
2022/02/13 09:31:49;;;;;;;13.48;7.18;;;;;;;;;;5034339;28;21705;-59
2022/02/13 09:34:18;;;;;;;12.00;6.20;;;;;;;;;;5037106;28;20033;-59
2022/02/13 09:36:46;;;;;;;15.43;7.22;;;;;;;;;;5039141;28;20365;-60
2022/02/13 09:39:12;;;;;;;17.48;8.65;;;;;;;;;;5034837;28;20041;-60
2022/02/13 09:41:40;;;;;;;13.55;6.97;;;;;;;;;;5038590;28;20087;-59
2022/02/13 09:44:07;;;;;;;14.77;7.55;;;;;;;;;;5035709;28;20464;-60
2022/02/13 09:46:33;;;;;;;11.07;6.28;;;;;;;;;;5037589;28;20056;-59
2022/02/13 09:48:59;;;;;;;15.25;7.13;;;;;;;;;;5034389;28;20122;-59
2022/02/13 09:51:25;;;;;;;12.35;6.68;;;;;;;;;;5050810;28;20049;-59
2022/02/13 09:53:52;;;;;;;13.40;6.78;;;;;;;;;;5044452;28;20045;-59
2022/02/13 09:56:18;;;;;;;11.70;6.40;;;;;;;;;;5041733;28;20041;-59
2022/02/13 09:58:44;;;;;;;11.90;6.55;;;;;;;;;;5047992;28;20396;-59
2022/02/13 10:01:11;;;;;;;12.07;6.13;;;;;;;;;;5040435;28;20041;-59
2022/02/13 10:03:40;;;;;;;12.38;6.18;;;;;;;;;;5041674;28;20060;-59
2022/02/13 10:06:12;;;;;;;12.15;6.47;;;;;;;;;;5066011;28;20045;-59
2022/02/13 10:08:40;;;;;;;12.50;6.55;;;;;;;;;;5035119;28;20130;-59
2022/02/13 10:11:10;;;;;;;12.05;5.65;;;;;;;;;;5038247;28;20172;-59
2022/02/13 10:13:46;;;;;;;14.18;6.70;;;;;;;;;;5039011;28;20113;-60
2022/02/13 10:16:13;;;;;;;11.90;6.35;;;;;;;;;;5041277;28;20037;-60
2022/02/13 10:18:45;;;;;;;14.27;7.05;;;;;;;;;;5041132;28;20162;-59
2022/02/13 10:21:11;;;;;;;15.77;7.28;;;;;;;;;;5041359;28;20487;-59
2022/02/13 10:23:37;;;;;;;14.75;7.22;;;;;;;;;;5042398;28;20163;-60
2022/02/13 10:26:19;;;;;;;13.10;6.57;;;;;;;;;;5042167;28;20238;-60
2022/02/13 10:28:55;;;;;;;16.17;6.60;;;;;;;;;;5037078;28;20044;-59
2022/02/13 10:31:22;;;;;;;13.05;6.65;;;;;;;;;;5038406;28;20040;-59
2022/02/13 10:33:58;;;;;;;14.25;5.68;;;;;;;;;;5035281;28;20045;-59
2022/02/13 10:36:24;;;;;;;11.82;6.15;;;;;;;;;;5040888;28;20049;-59
2022/02/13 10:38:51;;;;;;;12.93;6.75;;;;;;;;;;5038358;28;20362;-60
2022/02/13 10:41:19;;;;;;;12.52;6.85;;;;;;;;;;5040094;28;20084;-59
2022/02/13 10:43:49;;;;;;;13.43;6.75;;;;;;;;;;5036636;28;20037;-59
2022/02/13 10:46:16;;;;;;;12.13;6.10;;;;;;;;;;5041611;28;20098;-59
2022/02/13 10:48:43;;;;;;;10.88;6.68;;;;;;;;;;5036734;28;20437;-59
2022/02/13 10:51:09;;;;;;;15.52;5.88;;;;;;;;;;5036368;28;20493;-59
2022/02/13 10:53:35;;;;;;;11.27;6.65;;;;;;;;;;5037025;28;20084;-60
2022/02/13 10:56:02;;;;;;;10.77;6.85;;;;;;;;;;5040474;28;20514;-59
2022/02/13 10:58:30;;;;;;;16.35;6.32;;;;;;;;;;5036987;28;20063;-60
2022/02/13 11:00:58;;;;;;;10.45;6.13;;;;;;;;;;5045556;28;20045;-59
2022/02/13 11:03:25;;;;;;;13.00;6.63;;;;;;;;;;5048915;28;20045;-59
2022/02/13 11:05:53;;;;;;;11.23;5.88;;;;;;;;;;5031787;28;20038;-59
2022/02/13 11:08:20;;;;;;;13.07;6.32;;;;;;;;;;5031459;28;20120;-59
2022/02/13 11:10:49;;;;;;;12.25;6.38;;;;;;;;;;5038746;28;20051;-59
2022/02/13 11:13:17;;;;;;;17.80;5.28;;;;;;;;;;5037149;28;20060;-59
2022/02/13 11:15:44;;;;;;;12.18;5.43;;;;;;;;;;5040312;28;20497;-59
2022/02/13 11:18:17;;;;;;;10.63;6.05;;;;;;;;;;5064926;28;20522;-59
2022/02/13 11:20:44;;;;;;;9.93;5.57;;;;;;;;;;5071304;28;20721;-60
2022/02/13 11:23:33;;;;;;;11.77;6.20;;;;;;;;;;5037332;28;20053;-59
2022/02/13 11:26:07;;;;;;;12.32;5.85;;;;;;;;;;5038494;28;20129;-59
2022/02/13 11:28:42;;;;;;;10.30;6.00;;;;;;;;;;5035883;28;20045;-60
2022/02/13 11:31:08;;;;;;;14.25;5.82;;;;;;;;;;5034918;28;20178;-60
2022/02/13 11:33:36;;;;;;;11.82;6.22;;;;;;;;;;5036411;28;20042;-60
2022/02/13 11:36:04;;;;;;;12.85;6.30;;;;;;;;;;5040038;28;20132;-60
2022/02/13 11:38:52;;;;;;;9.75;5.82;;;;;;;;;;5034796;28;20056;-60
2022/02/13 11:41:19;;;;;;;12.40;6.40;;;;;;;;;;5041361;28;20053;-60
2022/02/13 11:43:46;;;;;;;11.60;6.22;;;;;;;;;;5033749;28;20044;-61
2022/02/13 11:46:14;;;;;;;11.52;6.07;;;;;;;;;;5038602;28;20037;-60
2022/02/13 11:48:43;;;;;;;17.00;6.38;;;;;;;;;;5036883;28;20111;-60
2022/02/13 11:51:10;;;;;;;10.75;5.93;;;;;;;;;;5043151;28;20032;-61
2022/02/13 11:53:38;;;;;;;12.88;5.78;;;;;;;;;;5043720;28;20128;-61
2022/02/13 11:56:23;;;;;;;12.60;5.43;;;;;;;;;;5046274;28;20045;-60
2022/02/13 11:58:50;;;;;;;11.02;6.22;;;;;;;;;;5042763;28;20060;-61
2022/02/13 12:01:38;;;;;;;9.60;5.60;;;;;;;;;;5044332;28;20052;-60
2022/02/13 12:04:05;;;;;;;9.00;5.35;;;;;;;;;;5043397;28;20176;-60
2022/02/13 12:06:33;;;;;;;13.07;6.07;;;;;;;;;;5043149;28;20438;-61
2022/02/13 12:09:07;;;;;;;12.80;6.25;;;;;;;;;;5045406;28;20033;-60
2022/02/13 12:11:35;;;;;;;11.55;6.10;;;;;;;;;;5041703;28;20045;-60
2022/02/13 12:14:11;;;;;;;13.57;6.35;;;;;;;;;;5074647;28;20056;-60
2022/02/13 12:16:38;;;;;;;13.93;6.40;;;;;;;;;;5041467;28;20504;-60
2022/02/13 12:19:04;;;;;;;11.88;5.93;;;;;;;;;;5045026;28;20124;-60
2022/02/13 12:21:30;;;;;;;13.10;5.72;;;;;;;;;;5043187;28;20057;-60
2022/02/13 12:24:00;;;;;;;8.10;5.28;;;;;;;;;;5041526;28;20041;-60
2022/02/13 12:26:28;;;;;;;8.65;5.38;;;;;;;;;;5044463;28;20143;-60
2022/02/13 12:28:54;;;;;;;11.90;5.63;;;;;;;;;;5042084;28;20040;-60
2022/02/13 12:31:23;;;;;;;11.98;5.53;;;;;;;;;;5041704;28;20448;-60
2022/02/13 12:33:51;;;;;;;8.88;5.45;;;;;;;;;;5038567;28;20169;-60
2022/02/13 12:36:25;;;;;;;13.82;5.93;;;;;;;;;;5042197;28;20150;-60
2022/02/13 12:38:57;;;;;;;10.27;5.07;;;;;;;;;;5036002;28;20091;-59
2022/02/13 12:41:25;;;;;;;11.07;5.45;;;;;;;;;;5031766;28;20523;-59
2022/02/13 12:43:52;;;;;;;8.57;5.00;;;;;;;;;;5038205;28;20080;-59
2022/02/13 12:46:21;;;;;;;12.63;5.47;;;;;;;;;;5041171;28;20036;-59
2022/02/13 12:48:48;;;;;;;8.07;4.75;;;;;;;;;;5039316;28;20159;-60
2022/02/13 12:51:25;;;;;;;9.63;4.75;;;;;;;;;;5040343;28;20440;-60
2022/02/13 12:53:51;;;;;;;13.00;5.80;;;;;;;;;;5040674;28;20502;-60
2022/02/13 12:56:18;;;;;;;12.13;5.60;;;;;;;;;;5033702;28;20108;-60
2022/02/13 12:58:45;;;;;;;9.48;4.75;;;;;;;;;;5041231;28;20052;-60
2022/02/13 13:01:14;;;;;;;9.45;4.90;;;;;;;;;;5027998;28;20064;-60
2022/02/13 13:03:42;;;;;;;9.63;4.38;;;;;;;;;;5035850;28;20409;-60
2022/02/13 13:06:08;;;;;;;11.77;4.57;;;;;;;;;;5037008;28;20047;-60
2022/02/13 13:08:43;;;;;;;7.43;4.53;;;;;;;;;;5038946;28;20041;-60
2022/02/13 13:11:09;;;;;;;8.25;4.70;;;;;;;;;;5035152;28;20457;-60
2022/02/13 13:13:38;;;;;;;6.75;4.10;;;;;;;;;;5034847;28;20440;-60
2022/02/13 13:16:08;;;;;;;9.10;4.90;;;;;;;;;;5067216;28;20041;-60
2022/02/13 13:18:46;;;;;;;8.20;4.40;;;;;;;;;;5031933;28;20079;-60
2022/02/13 13:21:12;;;;;;;7.40;4.70;;;;;;;;;;5035490;28;20540;-59
2022/02/13 13:23:53;;;;;;;10.93;4.50;;;;;;;;;;5039047;28;20051;-60
2022/02/13 13:26:19;;;;;;;7.50;4.32;;;;;;;;;;5040353;28;20045;-60
2022/02/13 13:28:46;;;;;;;9.73;4.35;;;;;;;;;;5035117;28;20083;-60
2022/02/13 13:31:12;;;;;;;9.60;4.50;;;;;;;;;;5036225;28;20037;-60
2022/02/13 13:33:38;;;;;;;9.00;4.28;;;;;;;;;;5044751;28;20047;-60
2022/02/13 13:36:04;;;;;;;7.10;4.20;;;;;;;;;;5061161;28;20083;-60
2022/02/13 13:38:31;;;;;;;9.02;4.43;;;;;;;;;;5031603;28;20381;-60
2022/02/13 13:41:04;;;;;;;10.88;4.82;;;;;;;;;;5034045;28;20045;-60
2022/02/13 13:43:30;;;;;;;10.63;4.38;;;;;;;;;;5036397;28;20132;-60
2022/02/13 13:45:56;;;;;;;7.95;4.47;;;;;;;;;;5040519;28;20041;-60
2022/02/13 13:48:22;;;;;;;6.50;4.18;;;;;;;;;;5038319;28;20116;-59
2022/02/13 13:50:50;;;;;;;7.43;4.07;;;;;;;;;;5046510;28;20052;-59
2022/02/13 13:53:17;;;;;;;7.47;3.97;;;;;;;;;;5044128;28;20127;-60
2022/02/13 13:55:44;;;;;;;8.18;4.28;;;;;;;;;;5036585;28;20448;-60
2022/02/13 13:58:11;;;;;;;7.50;4.22;;;;;;;;;;5038773;28;20048;-61
2022/02/13 14:00:38;;;;;;;7.53;3.80;;;;;;;;;;5038263;28;20441;-61
2022/02/13 14:03:06;;;;;;;9.20;4.25;;;;;;;;;;5037529;28;20049;-60
2022/02/13 14:05:33;;;;;;;7.47;3.63;;;;;;;;;;5037024;28;20053;-60
2022/02/13 14:08:02;;;;;;;8.70;3.83;;;;;;;;;;5040782;28;20057;-60
2022/02/13 14:10:29;;;;;;;8.05;4.47;;;;;;;;;;5041162;28;20091;-60
2022/02/13 14:12:55;;;;;;;7.95;4.10;;;;;;;;;;5038826;28;20120;-60
2022/02/13 14:15:22;;;;;;;8.85;3.95;;;;;;;;;;5041569;28;20501;-60
2022/02/13 14:17:48;;;;;;;7.53;4.18;;;;;;;;;;5038537;28;20095;-60
2022/02/13 14:20:15;;;;;;;9.32;4.45;;;;;;;;;;5035700;28;20095;-59
2022/02/13 14:22:41;;;;;;;6.35;4.28;;;;;;;;;;5038199;28;20052;-60
2022/02/13 14:25:07;;;;;;;10.50;4.65;;;;;;;;;;5039673;28;20148;-59
2022/02/13 14:27:34;;;;;;;8.57;4.10;;;;;;;;;;5039180;28;20059;-60
2022/02/13 14:30:00;;;;;;;10.48;3.97;;;;;;;;;;5039574;28;20036;-60